Polar Lady — WDC4401 — position and weather

sailwx.info

Track history (hours):
 
Tides and Currents Weather Stations Pressure Air Temp Water Temp Dewpoint Dewpoint Depression Visibility Wind Speed Wind Dir Waves Ship Positions

Polar Lady

Owner: M.G.F Fisheries, Seattle, WA. More information available from US FCC via Universal Licensing System and Coast Guard Vessel Documentation Center.

Last reported at 2017-Aug-22 18:22 UTC. Time now 2017-Aug-22 18:45 UTC.
Position N 48°05' W 122°38'.

Length 40 m.

Type: Fishing. MMSI: 367024080.

Date/timePositionNaut miles runAvg speedWind from/ knotsBaromVisibWave heightAir tempDewpointWater temp
2017-Aug-22 18:22N 48°05' W 122°38'711.2
2017-Aug-22 17:45N 47°59' W 122°34'310.7
2017-Aug-22 17:31N 47°57' W 122°32'5 9.8
2017-Aug-22 17:00N 47°53' W 122°28'5 9.7
2017-Aug-22 16:31N 47°48' W 122°26'5 9.7
2017-Aug-22 16:00N 47°43' W 122°26'5 9.2
2017-Aug-22 15:30N 47°38' W 122°25'2 3.4
2017-Aug-22 15:01N 47°38' W 122°23'0 0.0
2017-Aug-22 14:31N 47°38' W 122°23'0 0.0
2017-Aug-22 14:01N 47°38' W 122°23'0 0.0
2017-Aug-22 13:30N 47°38' W 122°23'0 0.0
2017-Aug-22 13:01N 47°38' W 122°23'0 0.0
2017-Aug-22 12:30N 47°38' W 122°23'0 0.0
2017-Aug-22 12:00N 47°38' W 122°23'0 0.0
2017-Aug-22 11:31N 47°38' W 122°23'0 0.0
2017-Aug-22 11:01N 47°38' W 122°23'0 0.0
2017-Aug-22 10:31N 47°38' W 122°23'0 0.0
2017-Aug-22 10:00N 47°38' W 122°23'0 0.0
2017-Aug-22 09:31N 47°38' W 122°23'0 0.0
2017-Aug-22 09:01N 47°38' W 122°23'0 0.0
2017-Aug-22 08:31N 47°38' W 122°23'0 0.0
2017-Aug-22 08:00N 47°38' W 122°23'0 0.0
2017-Aug-22 07:30N 47°38' W 122°23'0 0.0
2017-Aug-22 07:01N 47°38' W 122°23'0 0.0
2017-Aug-22 06:30N 47°38' W 122°23'0 0.0
2017-Aug-22 06:01N 47°38' W 122°23'0 0.0
2017-Aug-22 05:30N 47°38' W 122°23'2 4.3
2017-Aug-22 05:00N 47°38' W 122°26'4 7.5
2017-Aug-22 04:30N 47°42' W 122°28'4 8.3
2017-Aug-22 04:01N 47°46' W 122°28'4 8.5
2017-Aug-22 03:31N 47°50' W 122°29'4 7.9
2017-Aug-22 03:01N 47°54' W 122°30'4 7.8
2017-Aug-22 02:29N 47°57' W 122°35'24 8.2
2017-Aug-21 23:31N 48°20' W 122°47'1 8.3
2017-Aug-21 23:24N 48°21' W 122°46'4 7.5
2017-Aug-21 22:55N 48°25' W 122°45'3 7.1
2017-Aug-21 22:30N 48°27' W 122°44'3 5.3
2017-Aug-21 22:00N 48°30' W 122°43'3 5.2
2017-Aug-21 21:30N 48°31' W 122°40'2 1.8
2017-Aug-21 20:31N 48°31' W 122°37'0 0.0
2017-Aug-21 20:30N 48°31' W 122°37'0 0.0
2017-Aug-21 19:54N 48°31' W 122°37'0 0.4
2017-Aug-21 19:31N 48°31' W 122°37'4 7.5
2017-Aug-21 19:01N 48°31' W 122°43'4 8.5
2017-Aug-21 18:31N 48°27' W 122°44'3 6.7
2017-Aug-21 18:00N 48°23' W 122°44'2 0.6
2017-Aug-21 14:43N 48°22' W 122°46'310.6
2017-Aug-21 14:25N 48°25' W 122°45'511.7
2017-Aug-21 14:01N 48°29' W 122°45'611.5
2017-Aug-21 13:31N 48°35' W 122°46'510.2
2017-Aug-21 13:01N 48°40' W 122°44'6 9.4
2017-Aug-21 12:25N 48°45' W 122°48'410.2
2017-Aug-21 12:00N 48°47' W 122°53'510.1
2017-Aug-21 11:31N 48°50' W 122°60'5 9.9
2017-Aug-21 11:01N 48°53' W 123°06'5 9.5
2017-Aug-21 10:31N 48°56' W 123°12'5 9.0
2017-Aug-21 10:00N 48°59' W 123°17'4 9.0
2017-Aug-21 09:31N 49°02' W 123°22'4 8.8
2017-Aug-21 09:00N 49°05' W 123°27'5 9.3
2017-Aug-21 08:31N 49°08' W 123°31'5 9.5
2017-Aug-21 07:59N 49°12' W 123°36'4 9.2
2017-Aug-21 07:30N 49°15' W 123°41'5 9.1
2017-Aug-21 07:00N 49°18' W 123°46'4 8.8
2017-Aug-21 06:30N 49°20' W 123°52'5 9.3
2017-Aug-21 06:01N 49°22' W 123°58'5 9.8
2017-Aug-21 05:31N 49°24' W 124°06'5 9.7
2017-Aug-21 05:01N 49°24' W 124°13'5 9.9
2017-Aug-21 04:30N 49°26' W 124°20'5 9.2
2017-Aug-21 04:01N 49°29' W 124°25'5 9.1
2017-Aug-21 03:30N 49°33' W 124°30'5 9.1
2017-Aug-21 03:00N 49°36' W 124°35'5 9.2
2017-Aug-21 02:31N 49°39' W 124°40'5 9.1
2017-Aug-21 02:00N 49°42' W 124°45'4 8.9
2017-Aug-21 01:30N 49°46' W 124°50'4 8.8
2017-Aug-21 01:01N 49°49' W 124°55'4 8.8
2017-Aug-21 00:30N 49°52' W 124°60'5 9.1
2017-Aug-21 00:00N 49°55' W 125°05'510.1
2017-Aug-20 23:30N 49°58' W 125°10'611.4
2017-Aug-20 23:00N 50°03' W 125°15'612.5
2017-Aug-20 22:31N 50°08' W 125°21'510.6
2017-Aug-20 22:00N 50°13' W 125°23'5 9.9
2017-Aug-20 21:30N 50°18' W 125°25'610.0
2017-Aug-20 20:57N 50°21' W 125°32'510.4
2017-Aug-20 20:30N 50°22' W 125°39'57 9.0
2017-Aug-20 14:08N 50°45' W 127°01'2 8.7
2017-Aug-20 13:56N 50°46' W 127°04'4 8.3
2017-Aug-20 13:28N 50°48' W 127°08'4 8.8
2017-Aug-20 13:00N 50°50' W 127°14'4 8.7
2017-Aug-20 12:30N 50°53' W 127°20'4 7.9
2017-Aug-20 12:00N 50°55' W 127°25'3 6.3
2017-Aug-20 11:30N 50°57' W 127°29'4 7.5
2017-Aug-20 11:00N 50°59' W 127°34'4 7.8
2017-Aug-20 10:30N 51°02' W 127°38'4 7.9
2017-Aug-20 10:00N 51°05' W 127°42'4 8.2
2017-Aug-20 09:29N 51°08' W 127°47'5 8.0
2017-Aug-20 08:55N 51°12' W 127°50'9 8.7
2017-Aug-20 07:56N 51°20' W 127°52'4 8.9
2017-Aug-20 07:29N 51°24' W 127°51'4 8.9
2017-Aug-20 07:00N 51°28' W 127°52'4 8.9
2017-Aug-20 06:30N 51°33' W 127°53'4 8.6
2017-Aug-20 06:00N 51°37' W 127°54'4 8.3
2017-Aug-20 05:30N 51°41' W 127°56'4 8.5
2017-Aug-20 05:00N 51°45' W 127°57'4 8.8
2017-Aug-20 04:30N 51°50' W 127°57'4 8.7
2017-Aug-20 04:00N 51°54' W 127°57'4 8.8
2017-Aug-20 03:30N 51°58' W 127°56'4 8.6
2017-Aug-20 03:00N 52°03' W 127°56'4 7.9
2017-Aug-20 02:29N 52°05' W 128°02'4 8.1
2017-Aug-20 02:00N 52°06' W 128°08'4 7.9
2017-Aug-20 01:30N 52°10' W 128°08'4 6.4
2017-Aug-20 00:56N 52°13' W 128°11'5 8.4
2017-Aug-20 00:20N 52°15' W 128°19'5 7.6
2017-Aug-19 23:43N 52°16' W 128°26'3 7.9
2017-Aug-19 23:22N 52°18' W 128°29'4 8.4
2017-Aug-19 22:56N 52°21' W 128°31'4 8.4
2017-Aug-19 22:30N 52°25' W 128°29'  
Track history (hours):
 
Tides and Currents Weather Stations Pressure Air Temp Water Temp Dewpoint Dewpoint Depression Visibility Wind Speed Wind Dir Waves Ship Positions

Polar Lady

Owner: M.G.F Fisheries, Seattle, WA. More information available from US FCC via Universal Licensing System and Coast Guard Vessel Documentation Center.

Last reported at 2017-Aug-22 18:22 UTC. Time now 2017-Aug-22 18:45 UTC.
Position N 48°05' W 122°38'.

Length 40 m.

Type: Fishing. MMSI: 367024080.

Date/timePositionNaut miles runAvg speedWind from/ knotsBaromVisibWave heightAir tempDewpointWater temp
2017-Aug-22 18:22N 48°05' W 122°38'711.2
2017-Aug-22 17:45N 47°59' W 122°34'310.7
2017-Aug-22 17:31N 47°57' W 122°32'5 9.8
2017-Aug-22 17:00N 47°53' W 122°28'5 9.7
2017-Aug-22 16:31N 47°48' W 122°26'5 9.7
2017-Aug-22 16:00N 47°43' W 122°26'5 9.2
2017-Aug-22 15:30N 47°38' W 122°25'2 3.4
2017-Aug-22 15:01N 47°38' W 122°23'0 0.0
2017-Aug-22 14:31N 47°38' W 122°23'0 0.0
2017-Aug-22 14:01N 47°38' W 122°23'0 0.0
2017-Aug-22 13:30N 47°38' W 122°23'0 0.0
2017-Aug-22 13:01N 47°38' W 122°23'0 0.0
2017-Aug-22 12:30N 47°38' W 122°23'0 0.0
2017-Aug-22 12:00N 47°38' W 122°23'0 0.0
2017-Aug-22 11:31N 47°38' W 122°23'0 0.0
2017-Aug-22 11:01N 47°38' W 122°23'0 0.0
2017-Aug-22 10:31N 47°38' W 122°23'0 0.0
2017-Aug-22 10:00N 47°38' W 122°23'0 0.0
2017-Aug-22 09:31N 47°38' W 122°23'0 0.0
2017-Aug-22 09:01N 47°38' W 122°23'0 0.0
2017-Aug-22 08:31N 47°38' W 122°23'0 0.0
2017-Aug-22 08:00N 47°38' W 122°23'0 0.0
2017-Aug-22 07:30N 47°38' W 122°23'0 0.0
2017-Aug-22 07:01N 47°38' W 122°23'0 0.0
2017-Aug-22 06:30N 47°38' W 122°23'0 0.0
2017-Aug-22 06:01N 47°38' W 122°23'0 0.0
2017-Aug-22 05:30N 47°38' W 122°23'2 4.3
2017-Aug-22 05:00N 47°38' W 122°26'4 7.5
2017-Aug-22 04:30N 47°42' W 122°28'4 8.3
2017-Aug-22 04:01N 47°46' W 122°28'4 8.5
2017-Aug-22 03:31N 47°50' W 122°29'4 7.9
2017-Aug-22 03:01N 47°54' W 122°30'4 7.8
2017-Aug-22 02:29N 47°57' W 122°35'24 8.2
2017-Aug-21 23:31N 48°20' W 122°47'1 8.3
2017-Aug-21 23:24N 48°21' W 122°46'4 7.5
2017-Aug-21 22:55N 48°25' W 122°45'3 7.1
2017-Aug-21 22:30N 48°27' W 122°44'3 5.3
2017-Aug-21 22:00N 48°30' W 122°43'3 5.2
2017-Aug-21 21:30N 48°31' W 122°40'2 1.8
2017-Aug-21 20:31N 48°31' W 122°37'0 0.0
2017-Aug-21 20:30N 48°31' W 122°37'0 0.0
2017-Aug-21 19:54N 48°31' W 122°37'0 0.4
2017-Aug-21 19:31N 48°31' W 122°37'4 7.5
2017-Aug-21 19:01N 48°31' W 122°43'4 8.5
2017-Aug-21 18:31N 48°27' W 122°44'3 6.7
2017-Aug-21 18:00N 48°23' W 122°44'2 0.6
2017-Aug-21 14:43N 48°22' W 122°46'310.6
2017-Aug-21 14:25N 48°25' W 122°45'511.7
2017-Aug-21 14:01N 48°29' W 122°45'611.5
2017-Aug-21 13:31N 48°35' W 122°46'510.2
2017-Aug-21 13:01N 48°40' W 122°44'6 9.4
2017-Aug-21 12:25N 48°45' W 122°48'410.2
2017-Aug-21 12:00N 48°47' W 122°53'510.1
2017-Aug-21 11:31N 48°50' W 122°60'5 9.9
2017-Aug-21 11:01N 48°53' W 123°06'5 9.5
2017-Aug-21 10:31N 48°56' W 123°12'5 9.0
2017-Aug-21 10:00N 48°59' W 123°17'4 9.0
2017-Aug-21 09:31N 49°02' W 123°22'4 8.8
2017-Aug-21 09:00N 49°05' W 123°27'5 9.3
2017-Aug-21 08:31N 49°08' W 123°31'5 9.5
2017-Aug-21 07:59N 49°12' W 123°36'4 9.2
2017-Aug-21 07:30N 49°15' W 123°41'5 9.1
2017-Aug-21 07:00N 49°18' W 123°46'4 8.8
2017-Aug-21 06:30N 49°20' W 123°52'5 9.3
2017-Aug-21 06:01N 49°22' W 123°58'5 9.8
2017-Aug-21 05:31N 49°24' W 124°06'5 9.7
2017-Aug-21 05:01N 49°24' W 124°13'5 9.9
2017-Aug-21 04:30N 49°26' W 124°20'5 9.2
2017-Aug-21 04:01N 49°29' W 124°25'5 9.1
2017-Aug-21 03:30N 49°33' W 124°30'5 9.1
2017-Aug-21 03:00N 49°36' W 124°35'5 9.2
2017-Aug-21 02:31N 49°39' W 124°40'5 9.1
2017-Aug-21 02:00N 49°42' W 124°45'4 8.9
2017-Aug-21 01:30N 49°46' W 124°50'4 8.8
2017-Aug-21 01:01N 49°49' W 124°55'4 8.8
2017-Aug-21 00:30N 49°52' W 124°60'5 9.1
2017-Aug-21 00:00N 49°55' W 125°05'510.1
2017-Aug-20 23:30N 49°58' W 125°10'611.4
2017-Aug-20 23:00N 50°03' W 125°15'612.5
2017-Aug-20 22:31N 50°08' W 125°21'510.6
2017-Aug-20 22:00N 50°13' W 125°23'5 9.9
2017-Aug-20 21:30N 50°18' W 125°25'610.0
2017-Aug-20 20:57N 50°21' W 125°32'510.4
2017-Aug-20 20:30N 50°22' W 125°39'57 9.0
2017-Aug-20 14:08N 50°45' W 127°01'2 8.7
2017-Aug-20 13:56N 50°46' W 127°04'4 8.3
2017-Aug-20 13:28N 50°48' W 127°08'4 8.8
2017-Aug-20 13:00N 50°50' W 127°14'4 8.7
2017-Aug-20 12:30N 50°53' W 127°20'4 7.9
2017-Aug-20 12:00N 50°55' W 127°25'3 6.3
2017-Aug-20 11:30N 50°57' W 127°29'4 7.5
2017-Aug-20 11:00N 50°59' W 127°34'4 7.8
2017-Aug-20 10:30N 51°02' W 127°38'4 7.9
2017-Aug-20 10:00N 51°05' W 127°42'4 8.2
2017-Aug-20 09:29N 51°08' W 127°47'5 8.0
2017-Aug-20 08:55N 51°12' W 127°50'9 8.7
2017-Aug-20 07:56N 51°20' W 127°52'4 8.9
2017-Aug-20 07:29N 51°24' W 127°51'4 8.9
2017-Aug-20 07:00N 51°28' W 127°52'4 8.9
2017-Aug-20 06:30N 51°33' W 127°53'4 8.6
2017-Aug-20 06:00N 51°37' W 127°54'4 8.3
2017-Aug-20 05:30N 51°41' W 127°56'4 8.5
2017-Aug-20 05:00N 51°45' W 127°57'4 8.8
2017-Aug-20 04:30N 51°50' W 127°57'4 8.7
2017-Aug-20 04:00N 51°54' W 127°57'4 8.8
2017-Aug-20 03:30N 51°58' W 127°56'4 8.6
2017-Aug-20 03:00N 52°03' W 127°56'4 7.9
2017-Aug-20 02:29N 52°05' W 128°02'4 8.1
2017-Aug-20 02:00N 52°06' W 128°08'4 7.9
2017-Aug-20 01:30N 52°10' W 128°08'4 6.4
2017-Aug-20 00:56N 52°13' W 128°11'5 8.4
2017-Aug-20 00:20N 52°15' W 128°19'5 7.6
2017-Aug-19 23:43N 52°16' W 128°26'3 7.9
2017-Aug-19 23:22N 52°18' W 128°29'4 8.4
2017-Aug-19 22:56N 52°21' W 128°31'4 8.4
2017-Aug-19 22:30N 52°25' W 128°29'  

Dump ship's entire track history